Time;durP1;ratioP1;P1;durP2;ratioP2;P2;SDS_P1;SDS_P2;PMS_P1;PMS_P2;Temp;Humidity;BMP_temperature;BMP_pressure;BME280_temperature;BME280_humidity;BME280_pressure;Samples;Min_cycle;Max_cycle;Signal;HPM_P1;HPM_P2
2022/06/01 00:00:58;;;;;;;9.80;7.03;;;;;;;18.67;68.66;94808.53;4170844;28;20335;-55
2022/06/01 00:03:00;;;;;;;12.23;7.18;;;;;;;18.63;69.03;94805.50;4176615;28;20138;-55
2022/06/01 00:05:03;;;;;;;8.73;6.80;;;;;;;18.60;69.30;94806.69;4159921;28;20493;-54
2022/06/01 00:07:05;;;;;;;11.82;6.88;;;;;;;18.58;69.42;94803.47;4161410;28;20111;-56
2022/06/01 00:09:06;;;;;;;9.73;7.35;;;;;;;18.57;69.49;94796.50;4169431;28;20458;-55
2022/06/01 00:11:10;;;;;;;7.90;6.80;;;;;;;18.56;69.68;94796.72;4165450;28;20087;-59
2022/06/01 00:13:12;;;;;;;9.05;7.45;;;;;;;18.55;69.74;94798.56;4174447;28;20297;-54
2022/06/01 00:15:15;;;;;;;12.98;7.28;;;;;;;18.51;69.96;94802.63;4175023;28;20041;-54
2022/06/01 00:17:17;;;;;;;;;;;;;;;18.46;70.39;94796.34;4168625;28;20641;-54
2022/06/01 00:19:18;;;;;;;12.55;7.45;;;;;;;18.42;70.36;94806.53;4165750;28;19965;-53
2022/06/01 00:21:20;;;;;;;12.60;8.27;;;;;;;18.36;70.62;94802.03;4171145;28;20068;-54
2022/06/01 00:23:22;;;;;;;12.63;7.60;;;;;;;18.37;70.61;94809.00;4163715;28;20115;-55
2022/06/01 00:25:24;;;;;;;11.07;8.00;;;;;;;18.37;70.47;94811.66;4173298;28;20045;-54
2022/06/01 00:27:26;;;;;;;11.80;8.20;;;;;;;18.41;70.65;94808.38;4159848;28;20128;-54
2022/06/01 00:29:27;;;;;;;10.70;8.35;;;;;;;18.43;70.48;94813.44;4170064;28;20055;-53
2022/06/01 00:31:29;;;;;;;14.88;8.30;;;;;;;18.41;70.45;94804.88;4175914;28;20455;-55
2022/06/01 00:33:31;;;;;;;14.65;8.43;;;;;;;18.39;70.59;94810.41;4162693;28;20053;-55
2022/06/01 00:35:33;;;;;;;13.77;9.05;;;;;;;18.36;70.65;94802.84;4159570;28;20049;-54
2022/06/01 00:37:34;;;;;;;12.88;8.55;;;;;;;18.33;71.02;94805.91;4167073;28;20053;-55
2022/06/01 00:39:37;;;;;;;14.40;8.00;;;;;;;18.32;70.85;94804.28;4175941;28;20440;-52
2022/06/01 00:41:39;;;;;;;9.30;7.40;;;;;;;18.30;70.47;94802.84;4169159;28;20482;-53
2022/06/01 00:43:44;;;;;;;13.90;7.40;;;;;;;18.24;70.56;94812.47;4176387;28;20110;-54
2022/06/01 00:45:47;;;;;;;9.50;7.05;;;;;;;18.28;70.60;94807.53;4171899;28;20058;-53
2022/06/01 00:47:49;;;;;;;11.00;6.68;;;;;;;18.31;70.45;94799.19;4159416;28;20144;-54
2022/06/01 00:50:01;;;;;;;9.35;6.38;;;;;;;18.34;70.17;94796.94;4164250;28;20472;-54
2022/06/01 00:52:04;;;;;;;12.00;6.68;;;;;;;18.36;69.94;94794.91;4176879;28;20052;-57
2022/06/01 00:54:06;;;;;;;10.70;7.80;;;;;;;18.36;69.77;94800.19;4176459;28;20049;-56
2022/06/01 00:56:10;;;;;;;14.85;9.20;;;;;;;18.33;69.86;94805.91;4161918;28;20065;-57
2022/06/01 00:58:42;;;;;;;12.25;7.10;;;;;;;18.25;70.29;94803.47;4160283;28;20498;-56
2022/06/01 01:00:44;;;;;;;8.02;6.97;;;;;;;18.28;70.41;94792.44;4168490;28;20100;-57
2022/06/01 01:02:47;;;;;;;11.00;7.00;;;;;;;18.31;70.34;94802.66;4162493;28;20092;-56
2022/06/01 01:04:49;;;;;;;11.60;7.25;;;;;;;18.36;70.02;94799.38;4162703;28;20052;-54
2022/06/01 01:06:51;;;;;;;14.50;8.15;;;;;;;18.35;70.00;94801.22;4164044;28;20485;-56
2022/06/01 01:08:53;;;;;;;8.93;7.65;;;;;;;18.34;70.10;94786.31;4169665;28;20053;-54
2022/06/01 01:10:55;;;;;;;14.65;7.55;;;;;;;18.33;69.89;94790.00;4168693;28;20052;-56
2022/06/01 01:12:59;;;;;;;12.20;6.95;;;;;;;18.31;69.48;94791.25;4163663;28;20373;-57
2022/06/01 01:15:01;;;;;;;15.23;6.90;;;;;;;18.26;69.28;94789.19;4159007;28;20129;-56
2022/06/01 01:17:04;;;;;;;11.38;6.60;;;;;;;18.21;69.42;94781.03;4161889;28;20060;-57
2022/06/01 01:19:16;;;;;;;13.02;7.13;;;;;;;18.19;69.47;94783.06;4161152;28;20129;-55
2022/06/01 01:21:28;;;;;;;11.40;6.60;;;;;;;18.11;69.53;94781.44;4161906;28;20107;-55
2022/06/01 01:23:32;;;;;;;13.45;6.75;;;;;;;18.10;69.79;94779.00;4165999;28;20041;-56
2022/06/01 01:25:38;;;;;;;12.07;6.40;;;;;;;18.07;69.63;94774.94;4164048;28;20073;-54
2022/06/01 01:27:40;;;;;;;8.70;6.53;;;;;;;18.10;69.72;94773.69;4162713;28;20121;-56
2022/06/01 01:29:43;;;;;;;12.23;6.13;;;;;;;18.14;69.60;94773.06;4160362;28;20065;-53
2022/06/01 01:31:45;;;;;;;7.97;6.53;;;;;;;18.11;69.64;94760.25;4168682;28;20109;-55
2022/06/01 01:33:49;;;;;;;8.48;6.32;;;;;;;18.12;69.60;94761.88;4161023;28;21553;-55
2022/06/01 01:35:54;;;;;;;9.32;6.65;;;;;;;18.09;69.41;94756.13;4173243;28;20073;-54
2022/06/01 01:37:59;;;;;;;10.93;6.85;;;;;;;17.98;69.94;94754.91;4172327;28;20644;-55
2022/06/01 01:40:00;;;;;;;8.48;6.28;;;;;;;17.90;70.49;94760.44;4159890;28;20521;-54
2022/06/01 01:42:03;;;;;;;13.90;6.53;;;;;;;17.77;70.59;94754.06;4164258;28;20113;-53
2022/06/01 01:44:13;;;;;;;11.43;7.30;;;;;;;17.69;71.43;94751.59;4165757;28;20048;-54
2022/06/01 01:46:14;;;;;;;9.80;7.00;;;;;;;17.70;71.26;94752.41;4174355;28;20462;-56
2022/06/01 01:48:17;;;;;;;7.97;6.50;;;;;;;17.70;71.07;94755.06;4171663;28;20620;-54
2022/06/01 01:50:20;;;;;;;8.13;6.20;;;;;;;17.66;70.83;94757.31;4161902;28;20060;-54
2022/06/01 01:52:22;;;;;;;9.88;6.65;;;;;;;17.48;71.31;94755.22;4163819;28;20209;-54
2022/06/01 01:54:32;;;;;;;10.00;7.20;;;;;;;17.28;72.19;94751.72;4165839;28;20049;-56
2022/06/01 01:56:49;;;;;;;10.73;7.25;;;;;;;17.19;72.42;94765.13;4165508;28;20374;-56
2022/06/01 01:59:09;;;;;;;11.15;7.55;;;;;;;17.15;73.25;94755.16;4166137;28;20119;-55
2022/06/01 02:01:19;;;;;;;17.80;6.57;;;;;;;17.23;73.07;94770.84;4167566;28;20047;-57
2022/06/01 02:03:33;;;;;;;11.52;7.70;;;;;;;17.20;72.96;94768.59;4163450;28;20053;-52
2022/06/01 02:08:09;;;;;;;8.07;6.78;;;;;;;17.11;73.67;94754.72;4162680;28;20611;-55
2022/06/01 02:12:41;;;;;;;10.05;6.90;;;;;;;17.36;72.80;94762.16;4159000;28;20060;-55
2022/06/01 02:14:51;;;;;;;12.50;7.00;;;;;;;17.46;72.23;94769.69;4159066;28;20893;-54
2022/06/01 02:17:01;;;;;;;11.80;7.88;;;;;;;17.47;71.91;94769.50;4168903;28;20140;-53
2022/06/01 02:19:06;;;;;;;12.95;8.50;;;;;;;17.13;73.54;94768.56;4172579;28;20424;-55
2022/06/01 02:21:13;;;;;;;17.75;8.75;;;;;;;16.97;74.32;94774.19;4169990;28;20107;-54
2022/06/01 02:23:15;;;;;;;11.25;9.45;;;;;;;16.87;74.20;94771.91;4157233;28;20088;-55
2022/06/01 02:25:18;;;;;;;10.50;8.35;;;;;;;16.74;74.26;94769.19;4159706;28;20057;-53
2022/06/01 02:27:20;;;;;;;11.17;7.97;;;;;;;16.58;74.94;94770.28;4160398;28;20430;-52
2022/06/01 02:30:00;;;;;;;11.80;8.35;;;;;;;16.57;75.31;94771.31;4164421;28;20263;-53
2022/06/01 02:32:03;;;;;;;12.35;8.73;;;;;;;16.47;75.44;94770.84;4172774;28;20052;-55
2022/06/01 02:34:07;;;;;;;12.18;9.63;;;;;;;16.45;75.90;94775.50;4174297;28;20057;-54
2022/06/01 02:36:09;;;;;;;16.15;9.65;;;;;;;16.48;75.83;94775.13;4173159;28;20516;-54
2022/06/01 02:38:15;;;;;;;13.25;9.57;;;;;;;16.54;75.68;94777.81;4173922;28;20674;-53
2022/06/01 02:40:19;;;;;;;13.57;8.68;;;;;;;16.61;75.07;94785.78;4170561;28;20459;-53
2022/06/01 02:42:30;;;;;;;12.50;9.90;;;;;;;16.54;74.90;94779.63;4162084;28;20466;-54
2022/06/01 02:44:33;;;;;;;15.30;9.27;;;;;;;16.49;75.33;94784.69;4174449;28;20128;-53
2022/06/01 02:46:35;;;;;;;14.65;9.35;;;;;;;16.56;74.96;94782.88;4161843;28;20100;-54
2022/06/01 02:48:37;;;;;;;12.55;8.77;;;;;;;16.64;74.49;94777.44;4171918;28;20052;-53
2022/06/01 02:50:39;;;;;;;17.57;9.50;;;;;;;16.50;74.23;94783.69;4160107;28;20053;-52
2022/06/01 02:52:41;;;;;;;14.32;8.85;;;;;;;16.52;74.62;94786.94;4168899;28;20111;-55
2022/06/01 02:54:42;;;;;;;11.05;8.63;;;;;;;16.37;74.48;94790.50;4174018;28;20052;-53
2022/06/01 02:56:44;;;;;;;12.65;8.60;;;;;;;16.19;75.03;94787.50;4174830;28;20049;-54
2022/06/01 02:58:46;;;;;;;16.55;8.73;;;;;;;16.13;75.79;94777.69;4170060;28;20447;-55
2022/06/01 03:00:47;;;;;;;12.98;8.90;;;;;;;16.09;75.95;94789.66;4156250;28;20135;-55
2022/06/01 03:02:54;;;;;;;11.35;8.90;;;;;;;15.94;76.05;94790.56;4159148;28;20053;-53
2022/06/01 03:04:55;;;;;;;11.60;8.88;;;;;;;15.92;76.42;94783.84;4157145;28;20091;-55
2022/06/01 03:06:57;;;;;;;12.27;8.98;;;;;;;15.99;76.50;94786.56;4168490;28;20140;-54
2022/06/01 03:09:11;;;;;;;10.32;8.18;;;;;;;15.44;77.54;94797.53;4160999;28;20580;-53
2022/06/01 03:11:13;;;;;;;12.80;8.57;;;;;;;14.97;79.48;94796.22;4170230;28;20506;-56
2022/06/01 03:13:15;;;;;;;18.10;10.55;;;;;;;14.81;81.03;94799.84;4159274;28;20046;-54
2022/06/01 03:15:19;;;;;;;13.07;9.95;;;;;;;14.64;82.11;94799.19;4157430;28;20130;-54
2022/06/01 03:17:20;;;;;;;12.05;9.35;;;;;;;14.71;81.96;94800.13;4171159;28;20101;-53
2022/06/01 03:19:22;;;;;;;16.00;9.50;;;;;;;14.88;81.98;94799.91;4157933;28;20049;-54
2022/06/01 03:21:24;;;;;;;14.25;9.48;;;;;;;15.05;81.97;94805.81;4158638;28;20280;-54
2022/06/01 03:23:26;;;;;;;13.40;10.40;;;;;;;15.30;80.83;94808.97;4165577;28;20629;-54
2022/06/01 03:25:28;;;;;;;16.00;12.20;;;;;;;15.56;80.27;94809.25;4164934;28;20492;-53
2022/06/01 03:27:30;;;;;;;16.80;12.00;;;;;;;15.84;79.13;94808.56;4166867;28;20083;-55
2022/06/01 03:29:31;;;;;;;22.13;13.77;;;;;;;16.08;77.95;94810.00;4173260;28;20104;-55
2022/06/01 03:31:34;;;;;;;25.95;14.77;;;;;;;16.28;77.22;94806.69;4170143;28;20374;-54
2022/06/01 03:33:35;;;;;;;17.60;13.13;;;;;;;16.45;76.57;94809.88;4164978;28;20593;-52
2022/06/01 03:35:37;;;;;;;16.75;12.60;;;;;;;16.59;75.91;94804.50;4175418;28;20122;-54
2022/06/01 03:37:39;;;;;;;17.83;11.45;;;;;;;16.74;74.88;94806.22;4177137;28;20056;-54
2022/06/01 03:39:40;;;;;;;16.50;11.35;;;;;;;16.86;73.78;94803.84;4174491;28;20626;-52
2022/06/01 03:41:42;;;;;;;15.70;11.27;;;;;;;16.96;73.23;94799.03;4175263;28;20110;-53
2022/06/01 03:46:05;;;;;;;14.48;10.57;;;;;;;17.05;72.93;94805.78;4176052;28;20053;-55
2022/06/01 03:48:08;;;;;;;16.67;11.57;;;;;;;17.09;72.95;94811.50;4167459;28;20057;-53
2022/06/01 03:50:11;;;;;;;22.75;11.65;;;;;;;17.08;72.58;94808.06;4174452;28;20163;-56
2022/06/01 03:52:13;;;;;;;18.80;13.15;;;;;;;17.04;72.65;94814.75;4167682;28;20071;-53
2022/06/01 03:54:15;;;;;;;18.02;12.90;;;;;;;17.05;72.55;94818.22;4177036;28;20106;-54
2022/06/01 03:56:17;;;;;;;14.98;12.27;;;;;;;17.06;72.54;94814.56;4165672;28;20067;-52
2022/06/01 03:58:23;;;;;;;19.52;12.73;;;;;;;17.14;72.52;94812.56;4168085;28;20061;-55
2022/06/01 04:00:25;;;;;;;18.60;13.07;;;;;;;17.23;72.12;94809.72;4158854;28;20045;-52
2022/06/01 04:02:27;;;;;;;20.23;13.95;;;;;;;17.32;72.10;94813.84;4167576;28;20079;-55
2022/06/01 04:04:29;;;;;;;19.85;14.25;;;;;;;17.37;71.47;94808.78;4176519;28;20114;-52
2022/06/01 04:06:31;;;;;;;17.00;12.35;;;;;;;17.39;71.81;94812.84;4164936;28;20501;-54
2022/06/01 04:08:32;;;;;;;17.80;13.73;;;;;;;17.29;71.55;94809.75;4166263;28;20057;-55
2022/06/01 04:10:36;;;;;;;17.40;12.93;;;;;;;17.23;71.93;94809.72;4167559;28;20486;-55
2022/06/01 04:12:38;;;;;;;18.42;13.80;;;;;;;17.04;72.38;94811.28;4170632;28;20061;-55
2022/06/01 04:14:40;;;;;;;22.38;13.77;;;;;;;17.08;72.96;94816.00;4158729;28;20056;-57
2022/06/01 04:16:41;;;;;;;20.92;13.82;;;;;;;17.13;72.61;94813.56;4173377;28;20425;-52
2022/06/01 04:18:43;;;;;;;19.13;12.50;;;;;;;17.17;72.28;94820.09;4161975;28;20159;-54
2022/06/01 04:20:46;;;;;;;19.27;13.10;;;;;;;17.03;72.47;94818.41;4165077;28;20148;-54
2022/06/01 04:22:48;;;;;;;23.27;13.23;;;;;;;16.98;72.94;94815.53;4173395;28;20111;-52
2022/06/01 04:24:49;;;;;;;21.15;13.40;;;;;;;17.07;73.04;94814.34;4168430;28;20508;-52
2022/06/01 04:26:51;;;;;;;19.50;12.40;;;;;;;17.22;72.76;94816.06;4167536;28;20053;-55
2022/06/01 04:28:54;;;;;;;19.50;13.00;;;;;;;17.31;72.45;94812.22;4170572;28;20115;-56
2022/06/01 04:30:55;;;;;;;18.15;12.52;;;;;;;17.38;72.25;94815.72;4175726;28;20497;-51
2022/06/01 04:32:57;;;;;;;15.10;11.52;;;;;;;17.43;71.78;94821.22;4165146;28;20106;-52
2022/06/01 04:35:00;;;;;;;18.02;12.27;;;;;;;17.56;71.09;94820.47;4165431;28;20057;-52
2022/06/01 04:37:03;;;;;;;23.13;12.80;;;;;;;17.67;70.51;94811.13;4172552;28;20481;-55
2022/06/01 04:39:06;;;;;;;18.85;12.48;;;;;;;17.72;69.87;94813.97;4172290;28;20118;-54
2022/06/01 04:41:08;;;;;;;16.50;11.88;;;;;;;17.70;69.68;94818.66;4176568;28;20057;-54
2022/06/01 04:43:12;;;;;;;14.57;11.20;;;;;;;17.67;70.04;94822.53;4176194;28;20102;-55
2022/06/01 04:45:15;;;;;;;17.73;12.60;;;;;;;17.66;70.57;94820.91;4160616;28;20049;-57
2022/06/01 04:47:18;;;;;;;22.67;11.75;;;;;;;17.72;70.65;94824.56;4160196;28;20049;-57
2022/06/01 04:49:20;;;;;;;20.42;11.68;;;;;;;17.83;70.26;94824.00;4159843;28;20177;-55
2022/06/01 04:51:22;;;;;;;16.77;11.43;;;;;;;17.78;69.49;94824.59;4160767;28;20080;-54
2022/06/01 04:53:24;;;;;;;20.13;10.88;;;;;;;17.76;69.75;94823.16;4176181;28;20087;-56
2022/06/01 04:55:26;;;;;;;22.50;11.25;;;;;;;17.72;70.51;94825.38;4171403;28;20053;-55
2022/06/01 04:57:28;;;;;;;15.35;10.82;;;;;;;17.53;70.08;94831.44;4168197;28;20049;-56
2022/06/01 04:59:29;;;;;;;13.40;10.35;;;;;;;17.63;70.57;94825.78;4165323;28;20592;-54
2022/06/01 05:01:31;;;;;;;17.27;10.43;;;;;;;17.84;70.41;94838.09;4170862;28;20425;-54
2022/06/01 05:03:33;;;;;;;16.75;10.35;;;;;;;18.00;69.19;94827.94;4162061;28;20077;-54
2022/06/01 05:05:37;;;;;;;16.45;11.27;;;;;;;17.90;69.67;94835.44;4174970;28;20061;-54
2022/06/01 05:07:42;;;;;;;15.50;10.88;;;;;;;17.93;70.09;94840.34;4163152;28;20257;-53
2022/06/01 05:09:44;;;;;;;21.45;11.32;;;;;;;17.87;69.75;94842.97;4175506;28;20107;-54
2022/06/01 05:11:46;;;;;;;21.50;11.52;;;;;;;17.55;70.71;94846.13;4167441;28;20341;-54
2022/06/01 05:13:47;;;;;;;16.63;11.77;;;;;;;17.18;72.10;94842.09;4171370;28;20604;-55
2022/06/01 05:15:52;;;;;;;18.23;12.55;;;;;;;16.98;73.27;94842.81;4159202;28;20058;-56
2022/06/01 05:17:53;;;;;;;18.65;12.65;;;;;;;16.55;74.69;94850.84;4160064;28;20049;-52
2022/06/01 05:19:55;;;;;;;22.55;12.15;;;;;;;16.41;75.56;94851.72;4159636;28;20053;-53
2022/06/01 05:21:58;;;;;;;20.63;12.82;;;;;;;16.38;75.41;94850.28;4160488;28;20112;-53
2022/06/01 05:24:00;;;;;;;19.60;13.10;;;;;;;16.39;75.71;94851.13;4159457;28;20042;-52
2022/06/01 05:26:02;;;;;;;18.58;13.13;;;;;;;16.45;76.29;94854.81;4172819;28;20106;-57
2022/06/01 05:28:04;;;;;;;20.02;12.65;;;;;;;16.62;75.26;94840.31;4167669;28;20052;-55
2022/06/01 05:30:06;;;;;;;22.20;14.90;;;;;;;16.68;75.23;94850.13;4157370;28;20045;-55
2022/06/01 05:32:10;;;;;;;18.00;14.38;;;;;;;16.95;74.89;94852.94;4160081;28;20054;-53
2022/06/01 05:34:11;;;;;;;18.48;13.63;;;;;;;17.25;73.99;94842.13;4171434;28;20044;-56
2022/06/01 05:36:15;;;;;;;20.95;13.63;;;;;;;17.54;72.79;94841.84;4160871;28;20127;-53
2022/06/01 05:38:17;;;;;;;21.75;12.82;;;;;;;17.78;71.48;94837.03;4163440;28;20071;-55
2022/06/01 05:40:18;;;;;;;20.38;13.73;;;;;;;17.97;70.39;94835.47;4170563;28;20060;-55
2022/06/01 05:42:21;;;;;;;22.65;12.52;;;;;;;18.10;69.59;94834.66;4167357;28;20042;-53
2022/06/01 05:44:22;;;;;;;19.05;12.65;;;;;;;18.29;69.48;94833.88;4170825;28;20056;-53
2022/06/01 05:46:24;;;;;;;26.63;13.85;;;;;;;18.49;69.08;94833.06;4159058;28;20405;-55
2022/06/01 05:48:26;;;;;;;18.90;12.32;;;;;;;18.67;68.16;94827.09;4159333;28;20175;-53
2022/06/01 05:50:31;;;;;;;20.70;12.95;;;;;;;18.77;67.81;94827.50;4159707;28;20045;-54
2022/06/01 05:52:34;;;;;;;20.17;13.52;;;;;;;18.65;67.91;94823.84;4168351;28;20198;-54
2022/06/01 05:54:35;;;;;;;18.95;12.75;;;;;;;18.75;68.16;94824.25;4174423;28;20673;-55
2022/06/01 05:56:37;;;;;;;15.55;12.50;;;;;;;18.88;67.90;94831.41;4173403;28;20051;-58
2022/06/01 05:58:38;;;;;;;16.08;11.73;;;;;;;18.92;67.49;94825.47;4159202;28;20091;-55
2022/06/01 06:00:40;;;;;;;17.95;12.40;;;;;;;19.02;67.48;94830.38;4156736;28;20459;-56
2022/06/01 06:02:43;;;;;;;16.52;12.45;;;;;;;19.20;66.53;94819.88;4169073;28;20144;-56
2022/06/01 06:04:44;;;;;;;18.63;11.93;;;;;;;19.34;66.21;94822.50;4162920;28;20107;-54
2022/06/01 06:06:46;;;;;;;16.63;11.80;;;;;;;19.51;65.42;94820.16;4172375;28;20049;-56
2022/06/01 06:08:54;;;;;;;15.57;11.00;;;;;;;19.67;64.79;94834.81;4176165;28;20215;-54
2022/06/01 06:10:56;;;;;;;21.05;12.43;;;;;;;19.65;65.04;94829.72;4167529;28;20111;-56
2022/06/01 06:12:58;;;;;;;16.23;12.50;;;;;;;19.60;64.93;94833.00;4169686;28;20045;-58
2022/06/01 06:14:59;;;;;;;19.90;13.27;;;;;;;19.30;65.74;94826.59;4173613;28;20110;-54
2022/06/01 06:17:01;;;;;;;22.08;12.30;;;;;;;19.39;65.71;94834.13;4159787;28;20630;-58
2022/06/01 06:19:04;;;;;;;14.63;11.70;;;;;;;19.50;65.62;94827.31;4161637;28;20121;-56
2022/06/01 06:21:06;;;;;;;20.83;10.35;;;;;;;19.43;64.62;94837.19;4173368;28;20053;-53
2022/06/01 06:23:08;;;;;;;17.63;11.32;;;;;;;19.30;64.80;94829.25;4165087;28;20053;-56
2022/06/01 06:25:14;;;;;;;13.82;10.35;;;;;;;18.84;65.81;94828.34;4171469;28;20058;-57
2022/06/01 06:27:16;;;;;;;19.58;11.10;;;;;;;19.09;66.15;94828.50;4161175;28;20053;-55
2022/06/01 06:29:18;;;;;;;17.45;11.95;;;;;;;19.29;65.99;94819.66;4163762;28;20458;-54
2022/06/01 06:31:20;;;;;;;13.45;10.27;;;;;;;19.44;64.80;94822.84;4164532;28;20067;-56
2022/06/01 06:33:22;;;;;;;17.25;11.50;;;;;;;19.53;63.99;94821.59;4175064;28;20049;-53
2022/06/01 06:35:24;;;;;;;20.58;13.55;;;;;;;19.65;64.60;94822.53;4175324;28;20102;-55
2022/06/01 06:37:26;;;;;;;21.27;15.60;;;;;;;19.76;64.61;94822.94;4159035;28;20053;-56
2022/06/01 06:39:27;;;;;;;21.92;15.48;;;;;;;19.89;64.59;94814.06;4158450;28;20049;-52
2022/06/01 06:41:29;;;;;;;27.67;15.63;;;;;;;20.00;64.25;94819.53;4170458;28;20435;-51
2022/06/01 06:43:34;;;;;;;20.77;14.38;;;;;;;19.84;63.28;94822.69;4173819;28;20049;-56
2022/06/01 06:45:35;;;;;;;23.63;15.20;;;;;;;19.57;64.70;94822.78;4167502;28;20049;-54
2022/06/01 06:47:37;;;;;;;29.77;15.93;;;;;;;19.75;65.65;94816.81;4173629;28;20700;-53
2022/06/01 06:49:39;;;;;;;24.60;15.65;;;;;;;19.90;65.33;94821.84;4170345;28;20045;-55
2022/06/01 06:51:40;;;;;;;27.08;17.27;;;;;;;19.92;64.20;94819.78;4170653;28;20134;-57
2022/06/01 06:53:42;;;;;;;26.55;16.35;;;;;;;19.98;64.60;94810.97;4160605;28;20050;-54
2022/06/01 06:55:44;;;;;;;25.38;16.83;;;;;;;20.10;63.54;94812.94;4166850;28;20104;-55
2022/06/01 06:57:46;;;;;;;24.98;15.45;;;;;;;20.19;63.26;94814.28;4163684;28;20051;-57
2022/06/01 06:59:50;;;;;;;24.20;15.48;;;;;;;20.32;63.64;94808.84;4164994;28;20064;-56
2022/06/01 07:01:52;;;;;;;31.20;15.90;;;;;;;20.25;62.25;94808.91;4158873;28;20241;-53
2022/06/01 07:03:54;;;;;;;23.73;14.93;;;;;;;20.39;62.33;94809.63;4158655;28;20045;-53
2022/06/01 07:06:17;;;;;;;26.80;14.77;;;;;;;20.45;61.88;94811.41;4166788;28;20113;-53
2022/06/01 07:08:19;;;;;;;23.88;15.00;;;;;;;20.65;61.66;94803.31;4158868;28;20096;-54
2022/06/01 07:10:21;;;;;;;24.98;15.57;;;;;;;20.82;61.08;94800.06;4167597;28;20057;-55
2022/06/01 07:12:22;;;;;;;22.67;13.30;;;;;;;20.82;60.96;94797.38;4161156;28;20049;-54
2022/06/01 07:14:24;;;;;;;20.23;13.40;;;;;;;20.98;61.21;94791.50;4161363;28;20117;-56
2022/06/01 07:16:31;;;;;;;17.98;11.85;;;;;;;21.15;60.77;94807.72;4170798;28;20075;-55
2022/06/01 07:18:34;;;;;;;17.40;12.52;;;;;;;21.21;60.27;94795.34;4168415;28;20466;-55
2022/06/01 07:20:36;;;;;;;20.33;14.23;;;;;;;21.08;60.11;94801.66;4163506;28;20061;-56
2022/06/01 07:22:37;;;;;;;21.67;13.68;;;;;;;20.91;60.28;94806.75;4167569;28;20118;-56
2022/06/01 07:24:39;;;;;;;15.32;11.45;;;;;;;20.95;60.48;94801.75;4161147;28;20038;-53
2022/06/01 07:26:43;;;;;;;19.20;12.02;;;;;;;21.18;60.68;94801.91;4161527;28;20057;-57
2022/06/01 07:28:46;;;;;;;24.00;16.10;;;;;;;21.30;59.51;94793.22;4168418;28;20049;-56
2022/06/01 07:30:56;;;;;;;25.80;13.98;;;;;;;21.37;60.05;94800.06;4166875;28;20188;-55
2022/06/01 07:32:58;;;;;;;24.20;13.60;;;;;;;21.32;59.08;94799.13;4167849;28;20128;-56
2022/06/01 07:35:02;;;;;;;19.63;14.82;;;;;;;21.38;58.93;94796.38;4168392;28;20068;-55
2022/06/01 07:43:05;;;;;;;20.85;14.70;;;;;;;21.39;59.21;94794.53;4173502;28;20052;-54
2022/06/01 07:44:07;;;;;;;29.50;18.20;;;;;;;21.13;61.15;94791.13;4160969;28;20045;-55
2022/06/01 07:46:08;;;;;;;25.40;17.50;;;;;;;21.42;60.78;94789.59;4166914;28;20061;-54
2022/06/01 07:48:10;;;;;;;27.60;18.33;;;;;;;21.41;60.46;94789.78;4167308;28;20049;-56
2022/06/01 07:50:33;;;;;;;27.88;18.70;;;;;;;21.42;60.65;94791.44;4167384;28;20093;-53
2022/06/01 07:52:46;;;;;;;25.55;17.52;;;;;;;21.40;60.58;94794.31;4174012;28;20072;-55
2022/06/01 07:54:52;;;;;;;26.95;15.05;;;;;;;21.68;60.30;94792.94;4174308;28;20075;-54
2022/06/01 07:56:54;;;;;;;19.63;12.98;;;;;;;21.87;59.42;94796.38;4164218;28;20248;-54
2022/06/01 07:58:55;;;;;;;18.90;14.02;;;;;;;22.05;59.53;94790.19;4163389;28;20061;-55
2022/06/01 08:00:57;;;;;;;22.67;15.13;;;;;;;22.30;57.88;94792.69;4159058;28;20564;-55
2022/06/01 08:02:59;;;;;;;20.70;14.07;;;;;;;22.48;57.77;94791.78;4173080;28;20061;-56
2022/06/01 08:05:00;;;;;;;24.98;15.05;;;;;;;22.55;57.18;94789.00;4166613;28;20111;-57
2022/06/01 08:07:02;;;;;;;20.35;14.27;;;;;;;22.15;58.10;94786.94;4160544;28;20094;-54
2022/06/01 08:09:05;;;;;;;21.65;13.02;;;;;;;22.17;58.51;94791.00;4159400;28;20058;-55
2022/06/01 08:11:07;;;;;;;19.60;12.90;;;;;;;22.13;57.98;94792.50;4160850;28;20049;-55
2022/06/01 08:13:14;;;;;;;19.98;11.65;;;;;;;22.19;57.95;94788.09;4166955;28;20274;-59
2022/06/01 08:15:16;;;;;;;19.65;12.10;;;;;;;22.36;58.01;94797.09;4175163;28;20052;-56
2022/06/01 08:17:25;;;;;;;18.08;12.20;;;;;;;22.54;56.69;94790.84;4160358;28;20076;-56
2022/06/01 08:19:27;;;;;;;19.48;11.85;;;;;;;22.82;56.08;94784.84;4173739;28;20178;-55
2022/06/01 08:21:29;;;;;;;19.13;11.05;;;;;;;23.05;55.79;94791.22;4171105;28;20077;-55
2022/06/01 08:23:32;;;;;;;18.42;10.80;;;;;;;23.29;56.13;94790.13;4158418;28;20045;-57
2022/06/01 08:25:34;;;;;;;15.25;10.25;;;;;;;23.54;55.19;94788.22;4171107;28;20044;-56
2022/06/01 08:27:36;;;;;;;19.05;9.90;;;;;;;23.67;54.57;94794.09;4176933;28;20057;-57
2022/06/01 08:29:38;;;;;;;15.55;10.07;;;;;;;23.82;54.46;94790.09;4173840;28;20052;-54
2022/06/01 08:31:40;;;;;;;18.20;10.63;;;;;;;23.81;53.60;94791.16;4165322;28;20061;-56
2022/06/01 08:33:41;;;;;;;16.17;10.88;;;;;;;23.79;53.34;94787.91;4161032;28;20088;-54
2022/06/01 08:35:47;;;;;;;16.52;10.93;;;;;;;23.86;53.56;94793.94;4160015;28;20118;-55
2022/06/01 08:37:49;;;;;;;15.60;11.32;;;;;;;24.01;53.77;94783.50;4160805;28;20062;-55
2022/06/01 08:39:50;;;;;;;19.25;12.00;;;;;;;24.09;52.83;94787.63;4162853;28;20088;-56
2022/06/01 08:41:52;;;;;;;15.88;10.80;;;;;;;23.96;53.44;94788.75;4161299;28;20057;-56
2022/06/01 08:43:56;;;;;;;29.85;12.68;;;;;;;23.89;53.66;94793.44;4160879;28;20553;-56
2022/06/01 08:46:00;;;;;;;24.77;11.85;;;;;;;23.80;53.57;94789.53;4158403;28;20045;-54
2022/06/01 08:48:02;;;;;;;17.38;11.15;;;;;;;23.89;53.06;94793.44;4159074;28;20069;-56
2022/06/01 08:50:10;;;;;;;17.65;11.15;;;;;;;24.00;53.65;94789.09;4160261;28;20075;-57
2022/06/01 08:52:12;;;;;;;20.63;11.50;;;;;;;24.07;53.32;94790.56;4166289;28;20048;-55
2022/06/01 08:54:14;;;;;;;14.82;10.30;;;;;;;24.07;52.58;94779.88;4176279;28;20052;-56
2022/06/01 08:56:39;;;;;;;15.68;10.45;;;;;;;24.15;51.95;94792.03;4169891;28;20080;-55
2022/06/01 08:58:46;;;;;;;15.70;10.25;;;;;;;24.25;52.03;94783.38;4160053;28;20057;-58
2022/06/01 09:00:53;;;;;;;17.50;10.57;;;;;;;24.17;51.11;94783.75;4161093;28;20061;-57
2022/06/01 09:03:13;;;;;;;16.90;9.32;;;;;;;24.26;51.58;94782.31;4176573;28;20402;-57
2022/06/01 09:05:24;;;;;;;15.20;8.20;;;;;;;24.51;51.43;94788.09;4168910;28;20056;-55
2022/06/01 09:07:41;;;;;;;12.50;8.32;;;;;;;24.68;50.95;94781.94;4164256;28;20470;-55
2022/06/01 09:10:10;;;;;;;14.55;8.13;;;;;;;24.88;50.41;94782.22;4175990;28;20080;-57
2022/06/01 09:12:12;;;;;;;11.77;7.22;;;;;;;25.07;49.50;94782.75;4172580;28;20047;-56
2022/06/01 09:14:35;;;;;;;13.75;7.63;;;;;;;25.20;48.62;94783.50;4160484;28;20485;-56
2022/06/01 09:16:43;;;;;;;12.60;7.53;;;;;;;25.12;48.51;94779.31;4169522;28;20053;-55
2022/06/01 09:18:48;;;;;;;10.68;6.85;;;;;;;25.12;48.63;94779.31;4165338;28;20049;-58
2022/06/01 09:23:14;;;;;;;15.07;7.72;;;;;;;25.14;47.99;94778.03;4164446;28;20134;-56
2022/06/01 09:25:19;;;;;;;13.57;8.30;;;;;;;25.19;48.63;94774.63;4165972;28;20486;-56
2022/06/01 09:27:38;;;;;;;12.10;7.40;;;;;;;25.17;47.95;94771.38;4170118;28;20049;-54
2022/06/01 09:29:46;;;;;;;13.05;7.45;;;;;;;24.87;47.97;94772.56;4163801;28;20140;-56
2022/06/01 09:31:48;;;;;;;16.17;8.10;;;;;;;24.91;47.57;94779.06;4167243;28;20138;-55
2022/06/01 09:33:50;;;;;;;14.30;7.50;;;;;;;25.01;47.44;94766.84;4162484;28;20223;-56
2022/06/01 09:36:03;;;;;;;16.65;6.55;;;;;;;25.20;46.82;94767.41;4159799;28;20057;-54
2022/06/01 09:38:18;;;;;;;9.77;6.00;;;;;;;25.38;46.91;94763.59;4166249;28;20056;-55
2022/06/01 09:40:24;;;;;;;8.25;5.63;;;;;;;25.60;46.05;94758.19;4166053;28;20104;-56
2022/06/01 09:42:34;;;;;;;8.30;5.10;;;;;;;25.81;45.10;94764.59;4161060;28;20099;-55
2022/06/01 09:44:40;;;;;;;9.20;4.82;;;;;;;25.98;44.79;94751.91;4167843;28;20041;-56
2022/06/01 09:46:56;;;;;;;11.88;6.07;;;;;;;26.18;44.44;94763.91;4175354;28;20160;-56
2022/06/01 09:48:58;;;;;;;9.88;5.47;;;;;;;26.17;44.28;94760.41;4161747;28;20514;-54